RDBK12 YBOK-YBOK
Flight info
| Callsign | RDBK12 |
|---|---|
| Flight time | 0h 2m |
| Altitude | 1000 |
| Route | DCT YBOK YBOK DCT |
| Aircraft | H60/M-SDFGRY/LB1 |
Departure
| Time | 2026-05-06 04:41 |
|---|---|
| Airport | Oakey Army Aviation Centre (YBOK) |
Arrival
| Time | 2026-05-06 04:43 |
|---|---|
| Airport | Oakey Army Aviation Centre (YBOK) |
| Time | Latitude | Longitude | Altitude | Speed | Heading |
|---|---|---|---|---|---|
| 2026-05-06 04:10 | -27.41301 | 151.73556 | 1333 ft | 0 kts | 7° |
| 2026-05-06 04:11 | -27.41295 | 151.73556 | 1333 ft | 3 kts | 6° |
| 2026-05-06 04:12 | -27.41283 | 151.73543 | 1333 ft | 3 kts | 284° |
| 2026-05-06 04:12 | -27.41279 | 151.73509 | 1333 ft | 4 kts | 271° |
| 2026-05-06 04:12 | -27.41276 | 151.73470 | 1333 ft | 5 kts | 299° |
| 2026-05-06 04:12 | -27.41226 | 151.73452 | 1333 ft | 10 kts | 306° |
| 2026-05-06 04:13 | -27.41203 | 151.73327 | 1340 ft | 31 kts | 281° |
| 2026-05-06 04:13 | -27.41144 | 151.72940 | 1361 ft | 70 kts | 284° |
| 2026-05-06 04:13 | -27.41044 | 151.72302 | 1698 ft | 86 kts | 284° |
| 2026-05-06 04:13 | -27.41016 | 151.71671 | 1782 ft | 77 kts | 258° |
| 2026-05-06 04:14 | -27.41445 | 151.71382 | 1776 ft | 79 kts | 162° |
| 2026-05-06 04:14 | -27.41765 | 151.71817 | 1771 ft | 81 kts | 96° |
| 2026-05-06 04:14 | -27.41872 | 151.72613 | 1764 ft | 107 kts | 103° |
| 2026-05-06 04:14 | -27.41971 | 151.73396 | 1780 ft | 94 kts | 103° |
| 2026-05-06 04:15 | -27.41844 | 151.74118 | 1747 ft | 97 kts | 49° |
| 2026-05-06 04:15 | -27.41351 | 151.74330 | 1682 ft | 70 kts | 322° |
| 2026-05-06 04:15 | -27.41119 | 151.73917 | 1524 ft | 61 kts | 279° |
| 2026-05-06 04:15 | -27.41081 | 151.73585 | 1369 ft | 26 kts | 286° |
| 2026-05-06 04:16 | -27.41064 | 151.73492 | 1331 ft | 0 kts | 284° |
| 2026-05-06 04:16 | -27.41064 | 151.73493 | 1333 ft | 1 kts | 283° |
| 2026-05-06 04:17 | -27.41062 | 151.73483 | 1339 ft | 7 kts | 281° |
| 2026-05-06 04:17 | -27.41033 | 151.73279 | 1360 ft | 51 kts | 283° |
| 2026-05-06 04:17 | -27.40946 | 151.72716 | 1477 ft | 94 kts | 285° |
| 2026-05-06 04:17 | -27.40875 | 151.72182 | 1787 ft | 45 kts | 282° |
| 2026-05-06 04:18 | -27.41011 | 151.71891 | 1773 ft | 55 kts | 208° |
| 2026-05-06 04:18 | -27.41415 | 151.71851 | 1817 ft | 71 kts | 141° |
| 2026-05-06 04:18 | -27.41753 | 151.72338 | 1828 ft | 86 kts | 102° |
| 2026-05-06 04:18 | -27.41893 | 151.72936 | 1876 ft | 76 kts | 102° |
| 2026-05-06 04:19 | -27.41999 | 151.73510 | 1876 ft | 74 kts | 102° |
| 2026-05-06 04:19 | -27.41951 | 151.74085 | 1806 ft | 77 kts | 49° |
| 2026-05-06 04:19 | -27.41525 | 151.74382 | 1676 ft | 75 kts | 348° |
| 2026-05-06 04:19 | -27.41155 | 151.74070 | 1598 ft | 66 kts | 281° |
| 2026-05-06 04:20 | -27.41098 | 151.73721 | 1418 ft | 34 kts | 280° |
| 2026-05-06 04:20 | -27.41075 | 151.73555 | 1341 ft | 9 kts | 282° |
| 2026-05-06 04:20 | -27.41066 | 151.73496 | 1331 ft | 1 kts | 282° |
| 2026-05-06 04:20 | -27.41066 | 151.73495 | 1331 ft | 0 kts | 282° |
| 2026-05-06 04:21 | -27.41065 | 151.73494 | 1335 ft | 1 kts | 282° |
| 2026-05-06 04:21 | -27.41060 | 151.73466 | 1347 ft | 20 kts | 282° |
| 2026-05-06 04:21 | -27.41004 | 151.73086 | 1387 ft | 79 kts | 285° |
| 2026-05-06 04:21 | -27.40912 | 151.72467 | 1563 ft | 69 kts | 284° |
| 2026-05-06 04:22 | -27.40835 | 151.71983 | 1745 ft | 60 kts | 282° |
| 2026-05-06 04:22 | -27.40958 | 151.71525 | 1750 ft | 65 kts | 216° |
| 2026-05-06 04:22 | -27.41385 | 151.71416 | 1793 ft | 72 kts | 139° |
| 2026-05-06 04:23 | -27.41926 | 151.72608 | 1724 ft | 99 kts | 91° |
| 2026-05-06 04:23 | -27.42048 | 151.73395 | 1725 ft | 102 kts | 102° |
| 2026-05-06 04:23 | -27.42076 | 151.74127 | 1726 ft | 91 kts | 76° |
| 2026-05-06 04:23 | -27.41622 | 151.74497 | 1604 ft | 79 kts | 349° |
| 2026-05-06 04:24 | -27.41230 | 151.74167 | 1561 ft | 70 kts | 285° |
| 2026-05-06 04:24 | -27.41113 | 151.73766 | 1444 ft | 56 kts | 281° |
| 2026-05-06 04:24 | -27.41045 | 151.73392 | 1340 ft | 64 kts | 283° |
| 2026-05-06 04:24 | -27.40933 | 151.72702 | 1405 ft | 94 kts | 281° |
| 2026-05-06 04:25 | -27.40835 | 151.72141 | 1648 ft | 56 kts | 279° |
| 2026-05-06 04:25 | -27.41008 | 151.71720 | 1770 ft | 76 kts | 224° |
| 2026-05-06 04:25 | -27.41520 | 151.71603 | 1792 ft | 80 kts | 156° |
| 2026-05-06 04:25 | -27.41790 | 151.72166 | 1755 ft | 92 kts | 105° |
| 2026-05-06 04:26 | -27.41901 | 151.72845 | 1755 ft | 79 kts | 104° |
| 2026-05-06 04:26 | -27.42008 | 151.73443 | 1809 ft | 89 kts | 104° |
| 2026-05-06 04:26 | -27.41961 | 151.74158 | 1826 ft | 89 kts | 49° |
| 2026-05-06 04:26 | -27.41494 | 151.74446 | 1759 ft | 71 kts | 328° |
| 2026-05-06 04:27 | -27.41167 | 151.74080 | 1528 ft | 53 kts | 276° |
| 2026-05-06 04:27 | -27.41107 | 151.73770 | 1432 ft | 36 kts | 275° |
| 2026-05-06 04:27 | -27.41078 | 151.73571 | 1349 ft | 16 kts | 281° |
| 2026-05-06 04:27 | -27.41073 | 151.73534 | 1335 ft | 0 kts | 282° |
| 2026-05-06 04:28 | -27.41066 | 151.73493 | 1342 ft | 22 kts | 277° |
| 2026-05-06 04:29 | -27.41008 | 151.73114 | 1373 ft | 78 kts | 283° |
| 2026-05-06 04:29 | -27.40900 | 151.72392 | 1516 ft | 88 kts | 283° |
| 2026-05-06 04:29 | -27.40963 | 151.71827 | 1865 ft | 63 kts | 222° |
| 2026-05-06 04:29 | -27.41369 | 151.71737 | 1840 ft | 68 kts | 133° |
| 2026-05-06 04:30 | -27.41663 | 151.72235 | 1781 ft | 87 kts | 104° |
| 2026-05-06 04:30 | -27.41815 | 151.72923 | 1742 ft | 93 kts | 102° |
| 2026-05-06 04:30 | -27.41971 | 151.73622 | 1776 ft | 92 kts | 101° |
| 2026-05-06 04:30 | -27.41794 | 151.74299 | 1694 ft | 98 kts | 44° |
| 2026-05-06 04:31 | -27.41223 | 151.74395 | 1641 ft | 74 kts | 311° |
| 2026-05-06 04:31 | -27.41112 | 151.73967 | 1483 ft | 49 kts | 273° |
| 2026-05-06 04:31 | -27.41092 | 151.73680 | 1375 ft | 29 kts | 282° |
| 2026-05-06 04:31 | -27.41074 | 151.73538 | 1341 ft | 9 kts | 287° |
| 2026-05-06 04:32 | -27.41066 | 151.73493 | 1337 ft | 3 kts | 285° |
| 2026-05-06 04:32 | -27.41066 | 151.73491 | 1333 ft | 0 kts | 285° |
| 2026-05-06 04:32 | -27.41054 | 151.73429 | 1343 ft | 32 kts | 279° |
| 2026-05-06 04:33 | -27.40983 | 151.72957 | 1409 ft | 86 kts | 285° |
| 2026-05-06 04:33 | -27.40887 | 151.72230 | 1618 ft | 88 kts | 261° |
| 2026-05-06 04:33 | -27.41110 | 151.71745 | 1804 ft | 60 kts | 180° |
| 2026-05-06 04:33 | -27.41510 | 151.71876 | 1762 ft | 76 kts | 109° |
| 2026-05-06 04:34 | -27.41772 | 151.72451 | 1719 ft | 89 kts | 103° |
| 2026-05-06 04:34 | -27.41899 | 151.73169 | 1753 ft | 98 kts | 102° |
| 2026-05-06 04:34 | -27.42016 | 151.73949 | 1751 ft | 99 kts | 102° |
| 2026-05-06 04:34 | -27.41998 | 151.74637 | 1706 ft | 83 kts | 60° |
| 2026-05-06 04:35 | -27.41532 | 151.74977 | 1740 ft | 82 kts | 350° |
| 2026-05-06 04:35 | -27.41203 | 151.74588 | 1667 ft | 76 kts | 279° |
| 2026-05-06 04:35 | -27.41149 | 151.74108 | 1499 ft | 48 kts | 280° |
| 2026-05-06 04:35 | -27.41087 | 151.73655 | 1363 ft | 56 kts | 282° |
| 2026-05-06 04:36 | -27.41043 | 151.73364 | 1347 ft | 17 kts | 282° |
| 2026-05-06 04:36 | -27.41041 | 151.73350 | 1339 ft | 0 kts | 282° |
| 2026-05-06 04:36 | -27.41039 | 151.73344 | 1344 ft | 7 kts | 280° |
| 2026-05-06 04:36 | -27.41031 | 151.73302 | 1344 ft | 14 kts | 279° |
| 2026-05-06 04:37 | -27.40983 | 151.72954 | 1421 ft | 71 kts | 281° |
| 2026-05-06 04:37 | -27.40882 | 151.72287 | 1607 ft | 84 kts | 283° |
| 2026-05-06 04:37 | -27.40906 | 151.71692 | 1835 ft | 80 kts | 244° |
| 2026-05-06 04:37 | -27.41349 | 151.71385 | 1828 ft | 77 kts | 175° |
| 2026-05-06 04:38 | -27.41758 | 151.71741 | 1825 ft | 81 kts | 102° |
| 2026-05-06 04:38 | -27.41916 | 151.72396 | 1825 ft | 90 kts | 100° |
| 2026-05-06 04:38 | -27.42012 | 151.73148 | 1823 ft | 102 kts | 107° |
| 2026-05-06 04:38 | -27.42114 | 151.73905 | 1841 ft | 94 kts | 95° |
| 2026-05-06 04:39 | -27.41880 | 151.74548 | 1815 ft | 82 kts | 21° |
| 2026-05-06 04:39 | -27.41418 | 151.74506 | 1750 ft | 76 kts | 306° |
| 2026-05-06 04:39 | -27.41172 | 151.74090 | 1611 ft | 45 kts | 279° |
| 2026-05-06 04:39 | -27.41092 | 151.73641 | 1443 ft | 52 kts | 279° |
| 2026-05-06 04:40 | -27.41062 | 151.73456 | 1333 ft | 0 kts | 287° |
| 2026-05-06 04:40 | -27.41063 | 151.73453 | 1346 ft | 5 kts | 284° |
| 2026-05-06 04:41 | -27.41024 | 151.73206 | 1371 ft | 59 kts | 283° |
| 2026-05-06 04:41 | -27.40926 | 151.72638 | 1521 ft | 90 kts | 284° |
| 2026-05-06 04:41 | -27.40876 | 151.71915 | 1733 ft | 92 kts | 249° |
| 2026-05-06 04:41 | -27.41334 | 151.71476 | 1946 ft | 95 kts | 185° |
| 2026-05-06 04:42 | -27.41969 | 151.71800 | 1941 ft | 114 kts | 122° |
| 2026-05-06 04:42 | -27.42221 | 151.72689 | 1951 ft | 125 kts | 95° |
| 2026-05-06 04:42 | -27.42341 | 151.73623 | 1959 ft | 105 kts | 96° |
| 2026-05-06 04:42 | -27.42274 | 151.74366 | 1970 ft | 102 kts | 64° |
| 2026-05-06 04:43 | -27.41695 | 151.74703 | 1895 ft | 99 kts | 347° |
| 2026-05-06 04:43 | -27.41191 | 151.74197 | 1602 ft | 88 kts | 285° |
| 2026-05-06 04:43 | -27.41094 | 151.73698 | 1425 ft | 51 kts | 280° |
| 2026-05-06 04:43 | -27.41058 | 151.73448 | 1331 ft | 3 kts | 279° |
| 2026-05-06 04:44 | -27.41057 | 151.73448 | 1331 ft | 0 kts | 279° |
| 2026-05-06 04:44 | -27.41058 | 151.73447 | 1337 ft | 0 kts | 277° |
| 2026-05-06 04:44 | -27.41053 | 151.73403 | 1345 ft | 18 kts | 277° |
| 2026-05-06 04:45 | -27.41012 | 151.73125 | 1368 ft | 57 kts | 279° |
| 2026-05-06 04:45 | -27.40921 | 151.72510 | 1495 ft | 99 kts | 283° |
| 2026-05-06 04:45 | -27.40931 | 151.71727 | 1829 ft | 96 kts | 235° |
| 2026-05-06 04:45 | -27.41456 | 151.71391 | 1969 ft | 96 kts | 155° |
| 2026-05-06 04:46 | -27.41852 | 151.71961 | 1942 ft | 112 kts | 107° |
| 2026-05-06 04:46 | -27.41956 | 151.72874 | 1979 ft | 108 kts | 101° |
| 2026-05-06 04:46 | -27.42026 | 151.73639 | 1973 ft | 101 kts | 103° |
| 2026-05-06 04:46 | -27.41879 | 151.74329 | 1926 ft | 83 kts | 35° |
| 2026-05-06 04:47 | -27.41385 | 151.74372 | 1787 ft | 75 kts | 317° |
| 2026-05-06 04:47 | -27.41158 | 151.74002 | 1586 ft | 43 kts | 284° |
| 2026-05-06 04:47 | -27.41106 | 151.73753 | 1452 ft | 28 kts | 282° |
| 2026-05-06 04:47 | -27.41078 | 151.73571 | 1356 ft | 13 kts | 282° |
| 2026-05-06 04:48 | -27.41067 | 151.73506 | 1338 ft | 2 kts | 282° |
| 2026-05-06 04:48 | -27.41067 | 151.73503 | 1331 ft | 0 kts | 282° |
| 2026-05-06 04:54 | -27.41065 | 151.73497 | 1334 ft | 8 kts | 283° |
| 2026-05-06 04:54 | -27.41035 | 151.73287 | 1356 ft | 49 kts | 284° |
| 2026-05-06 04:55 | -27.40959 | 151.72738 | 1453 ft | 80 kts | 285° |
| 2026-05-06 04:55 | -27.40869 | 151.72115 | 1639 ft | 79 kts | 276° |
| 2026-05-06 04:55 | -27.41106 | 151.71499 | 1851 ft | 95 kts | 231° |
| 2026-05-06 04:55 | -27.41752 | 151.71343 | 1880 ft | 103 kts | 175° |
| 2026-05-06 04:56 | -27.42207 | 151.71966 | 1906 ft | 113 kts | 104° |
| 2026-05-06 04:56 | -27.42370 | 151.72827 | 1898 ft | 114 kts | 104° |
| 2026-05-06 04:56 | -27.42518 | 151.73703 | 1899 ft | 114 kts | 100° |
| 2026-05-06 04:56 | -27.42255 | 151.74478 | 1836 ft | 102 kts | 39° |
| 2026-05-06 04:57 | -27.41655 | 151.74586 | 1741 ft | 82 kts | 345° |
| 2026-05-06 04:57 | -27.41233 | 151.74198 | 1580 ft | 78 kts | 301° |
| 2026-05-06 04:57 | -27.41118 | 151.73773 | 1419 ft | 37 kts | 291° |
| 2026-05-06 04:57 | -27.41083 | 151.73596 | 1347 ft | 18 kts | 291° |
| 2026-05-06 04:58 | -27.41069 | 151.73518 | 1335 ft | 2 kts | 289° |
| 2026-05-06 04:58 | -27.41069 | 151.73515 | 1334 ft | 0 kts | 282° |
| 2026-05-06 05:08 | -27.41068 | 151.73515 | 1338 ft | 1 kts | 283° |
| 2026-05-06 05:08 | -27.41057 | 151.73453 | 1345 ft | 27 kts | 283° |
| 2026-05-06 05:08 | -27.41005 | 151.73065 | 1382 ft | 76 kts | 282° |
| 2026-05-06 05:08 | -27.40910 | 151.72357 | 1500 ft | 100 kts | 281° |
| 2026-05-06 05:09 | -27.40891 | 151.71561 | 1698 ft | 111 kts | 264° |
| 2026-05-06 05:09 | -27.41446 | 151.70953 | 1891 ft | 122 kts | 197° |
| 2026-05-06 05:09 | -27.42233 | 151.71182 | 1973 ft | 111 kts | 131° |
| 2026-05-06 05:09 | -27.42480 | 151.71898 | 1957 ft | 102 kts | 95° |
| 2026-05-06 05:10 | -27.42533 | 151.72720 | 1899 ft | 115 kts | 97° |
| 2026-05-06 05:10 | -27.42600 | 151.73674 | 1915 ft | 126 kts | 97° |
| 2026-05-06 05:10 | -27.42632 | 151.74649 | 1932 ft | 129 kts | 83° |
| 2026-05-06 05:10 | -27.42194 | 151.75446 | 1861 ft | 115 kts | 31° |
| 2026-05-06 05:11 | -27.41480 | 151.75475 | 1726 ft | 102 kts | 326° |
| 2026-05-06 05:11 | -27.41225 | 151.74777 | 1661 ft | 97 kts | 280° |
| 2026-05-06 05:11 | -27.41145 | 151.74106 | 1463 ft | 67 kts | 279° |
| 2026-05-06 05:11 | -27.41098 | 151.73717 | 1368 ft | 41 kts | 281° |
| 2026-05-06 05:12 | -27.41067 | 151.73509 | 1331 ft | 0 kts | 280° |
| 2026-05-06 05:12 | -27.41066 | 151.73506 | 1337 ft | 1 kts | 275° |
| 2026-05-06 05:12 | -27.41050 | 151.73383 | 1357 ft | 31 kts | 279° |
| 2026-05-06 05:13 | -27.40988 | 151.72977 | 1418 ft | 75 kts | 283° |
| 2026-05-06 05:13 | -27.40898 | 151.72310 | 1628 ft | 90 kts | 285° |
| 2026-05-06 05:13 | -27.41140 | 151.71657 | 1828 ft | 113 kts | 223° |
| 2026-05-06 05:13 | -27.41964 | 151.71741 | 1842 ft | 139 kts | 144° |
| 2026-05-06 05:14 | -27.42246 | 151.72810 | 1786 ft | 138 kts | 99° |
| 2026-05-06 05:14 | -27.42336 | 151.73769 | 1846 ft | 114 kts | 97° |
| 2026-05-06 05:14 | -27.42313 | 151.74643 | 1993 ft | 113 kts | 64° |
| 2026-05-06 05:14 | -27.41634 | 151.74825 | 1887 ft | 113 kts | 328° |
| 2026-05-06 05:15 | -27.41192 | 151.74173 | 1612 ft | 83 kts | 280° |
| 2026-05-06 05:15 | -27.41102 | 151.73750 | 1440 ft | 39 kts | 276° |
| 2026-05-06 05:15 | -27.41075 | 151.73545 | 1346 ft | 13 kts | 281° |
| 2026-05-06 05:15 | -27.41070 | 151.73516 | 1334 ft | 0 kts | 281° |
| 2026-05-06 05:16 | -27.41069 | 151.73514 | 1334 ft | 0 kts | 277° |
| 2026-05-06 05:16 | -27.41069 | 151.73513 | 1340 ft | 0 kts | 275° |
| 2026-05-06 05:17 | -27.41065 | 151.73485 | 1346 ft | 20 kts | 277° |
| 2026-05-06 05:17 | -27.41018 | 151.73150 | 1373 ft | 64 kts | 287° |
| 2026-05-06 05:17 | -27.40929 | 151.72553 | 1462 ft | 87 kts | 285° |
| 2026-05-06 05:17 | -27.40851 | 151.71915 | 1732 ft | 80 kts | 266° |
| 2026-05-06 05:18 | -27.41312 | 151.71725 | 1737 ft | 88 kts | 155° |
| 2026-05-06 05:18 | -27.41614 | 151.72387 | 1794 ft | 102 kts | 103° |
| 2026-05-06 05:18 | -27.41820 | 151.73191 | 1957 ft | 109 kts | 99° |
| 2026-05-06 05:18 | -27.41959 | 151.74029 | 1980 ft | 107 kts | 89° |
| 2026-05-06 05:19 | -27.41585 | 151.74549 | 1826 ft | 78 kts | 352° |
| 2026-05-06 05:19 | -27.41189 | 151.74145 | 1556 ft | 76 kts | 281° |
| 2026-05-06 05:19 | -27.41098 | 151.73739 | 1373 ft | 37 kts | 274° |
| 2026-05-06 05:19 | -27.41074 | 151.73539 | 1336 ft | 9 kts | 277° |
| 2026-05-06 05:20 | -27.41070 | 151.73515 | 1331 ft | 1 kts | 280° |
| 2026-05-06 05:20 | -27.41053 | 151.73405 | 1346 ft | 35 kts | 275° |
| 2026-05-06 05:20 | -27.40989 | 151.72976 | 1393 ft | 74 kts | 280° |
| 2026-05-06 05:20 | -27.40890 | 151.72334 | 1646 ft | 86 kts | 284° |
| 2026-05-06 05:21 | -27.40990 | 151.71715 | 1852 ft | 87 kts | 230° |
| 2026-05-06 05:21 | -27.41568 | 151.71672 | 1951 ft | 94 kts | 144° |
| 2026-05-06 05:21 | -27.41870 | 151.72428 | 1871 ft | 121 kts | 101° |
| 2026-05-06 05:21 | -27.42027 | 151.73385 | 1832 ft | 127 kts | 99° |
| 2026-05-06 05:22 | -27.41897 | 151.74228 | 1819 ft | 94 kts | 39° |
| 2026-05-06 05:22 | -27.41368 | 151.74225 | 1615 ft | 81 kts | 312° |
| 2026-05-06 05:22 | -27.41115 | 151.73780 | 1410 ft | 41 kts | 275° |
| 2026-05-06 05:22 | -27.41076 | 151.73549 | 1350 ft | 21 kts | 279° |
| 2026-05-06 05:23 | -27.41067 | 151.73494 | 1333 ft | 0 kts | 281° |
| 2026-05-06 05:25 | -27.41062 | 151.73459 | 1345 ft | 20 kts | 279° |
| 2026-05-06 05:26 | -27.41000 | 151.73051 | 1372 ft | 87 kts | 284° |
| 2026-05-06 05:26 | -27.40887 | 151.72251 | 1484 ft | 104 kts | 281° |
| 2026-05-06 05:26 | -27.41104 | 151.71550 | 1714 ft | 98 kts | 220° |
| 2026-05-06 05:26 | -27.41840 | 151.71580 | 1721 ft | 128 kts | 153° |
| 2026-05-06 05:27 | -27.42196 | 151.72431 | 1765 ft | 126 kts | 99° |
| 2026-05-06 05:27 | -27.42269 | 151.73411 | 1709 ft | 129 kts | 96° |
| 2026-05-06 05:27 | -27.42312 | 151.74445 | 1818 ft | 134 kts | 90° |
| 2026-05-06 05:27 | -27.41813 | 151.75115 | 1801 ft | 114 kts | 360° |
| 2026-05-06 05:28 | -27.41235 | 151.74666 | 1651 ft | 102 kts | 281° |
| 2026-05-06 05:28 | -27.41144 | 151.74006 | 1495 ft | 58 kts | 282° |
| 2026-05-06 05:28 | -27.41091 | 151.73653 | 1399 ft | 33 kts | 284° |
| 2026-05-06 05:28 | -27.41067 | 151.73503 | 1335 ft | 7 kts | 283° |
| 2026-05-06 05:29 | -27.41064 | 151.73494 | 1334 ft | 0 kts | 279° |
| 2026-05-06 05:29 | -27.41063 | 151.73493 | 1334 ft | 0 kts | 278° |
| 2026-05-06 05:30 | -27.41052 | 151.73409 | 1343 ft | 31 kts | 275° |
| 2026-05-06 05:30 | -27.40992 | 151.72969 | 1409 ft | 83 kts | 282° |
| 2026-05-06 05:30 | -27.40888 | 151.72236 | 1697 ft | 101 kts | 282° |
| 2026-05-06 05:31 | -27.40922 | 151.71442 | 1946 ft | 106 kts | 243° |
| 2026-05-06 05:31 | -27.41527 | 151.71166 | 2014 ft | 105 kts | 162° |
| 2026-05-06 05:31 | -27.41914 | 151.71881 | 1963 ft | 124 kts | 104° |
| 2026-05-06 05:31 | -27.42053 | 151.72899 | 1875 ft | 134 kts | 101° |
| 2026-05-06 05:32 | -27.42163 | 151.73926 | 1980 ft | 128 kts | 95° |
| 2026-05-06 05:32 | -27.41761 | 151.74569 | 1926 ft | 93 kts | 13° |
| 2026-05-06 05:32 | -27.41243 | 151.74221 | 1715 ft | 80 kts | 295° |
| 2026-05-06 05:32 | -27.41097 | 151.73839 | 1499 ft | 44 kts | 282° |
| 2026-05-06 05:33 | -27.41074 | 151.73565 | 1349 ft | 22 kts | 284° |
| 2026-05-06 05:33 | -27.41065 | 151.73499 | 1331 ft | 3 kts | 285° |
| 2026-05-06 05:33 | -27.41064 | 151.73497 | 1331 ft | 0 kts | 284° |
| 2026-05-06 05:39 | -27.41063 | 151.73495 | 1336 ft | 2 kts | 283° |
| 2026-05-06 05:39 | -27.41055 | 151.73444 | 1341 ft | 19 kts | 283° |
| 2026-05-06 05:39 | -27.41013 | 151.73138 | 1363 ft | 68 kts | 283° |
| 2026-05-06 05:40 | -27.40913 | 151.72456 | 1689 ft | 101 kts | 283° |
| 2026-05-06 05:40 | -27.40883 | 151.71686 | 2036 ft | 96 kts | 255° |
| 2026-05-06 05:40 | -27.41441 | 151.71315 | 1921 ft | 109 kts | 183° |
| 2026-05-06 05:40 | -27.42044 | 151.71900 | 1885 ft | 126 kts | 109° |
| 2026-05-06 05:41 | -27.42160 | 151.72894 | 1873 ft | 131 kts | 100° |
| 2026-05-06 05:41 | -27.42277 | 151.73895 | 1920 ft | 125 kts | 97° |
| 2026-05-06 05:41 | -27.41925 | 151.74643 | 1798 ft | 110 kts | 24° |
| 2026-05-06 05:41 | -27.41296 | 151.74376 | 1645 ft | 98 kts | 291° |
| 2026-05-06 05:42 | -27.41123 | 151.73864 | 1462 ft | 47 kts | 276° |
| 2026-05-06 05:42 | -27.41084 | 151.73621 | 1370 ft | 20 kts | 276° |
| 2026-05-06 05:42 | -27.41071 | 151.73522 | 1342 ft | 4 kts | 279° |
| 2026-05-06 05:42 | -27.41069 | 151.73513 | 1334 ft | 0 kts | 281° |
| 2026-05-06 05:43 | -27.41067 | 151.73500 | 1338 ft | 7 kts | 277° |
| 2026-05-06 05:43 | -27.41062 | 151.73468 | 1337 ft | 14 kts | 278° |
| 2026-05-06 05:43 | -27.41027 | 151.73235 | 1357 ft | 48 kts | 277° |
| 2026-05-06 05:43 | -27.40949 | 151.72712 | 1489 ft | 81 kts | 285° |
| 2026-05-06 05:44 | -27.40881 | 151.72276 | 1737 ft | 90 kts | 287° |
| 2026-05-06 05:44 | -27.41077 | 151.71346 | 1969 ft | 110 kts | 225° |
| 2026-05-06 05:44 | -27.41567 | 151.71209 | 2036 ft | 108 kts | 174° |
| 2026-05-06 05:44 | -27.41975 | 151.71830 | 2035 ft | 107 kts | 104° |
| 2026-05-06 05:45 | -27.42098 | 151.72650 | 1977 ft | 104 kts | 99° |
| 2026-05-06 05:45 | -27.42189 | 151.73481 | 1967 ft | 106 kts | 101° |
| 2026-05-06 05:45 | -27.42165 | 151.74348 | 1998 ft | 117 kts | 72° |
| 2026-05-06 05:45 | -27.41538 | 151.74783 | 1881 ft | 110 kts | 352° |
| 2026-05-06 05:46 | -27.41112 | 151.74165 | 1562 ft | 103 kts | 274° |
| 2026-05-06 05:46 | -27.41083 | 151.73612 | 1386 ft | 47 kts | 284° |
| 2026-05-06 05:46 | -27.41053 | 151.73318 | 1368 ft | 25 kts | 234° |
| 2026-05-06 05:46 | -27.41163 | 151.73290 | 1347 ft | 15 kts | 114° |
| 2026-05-06 05:47 | -27.41208 | 151.73388 | 1340 ft | 14 kts | 114° |
| 2026-05-06 05:47 | -27.41256 | 151.73454 | 1342 ft | 9 kts | 195° |
| 2026-05-06 05:47 | -27.41315 | 151.73484 | 1341 ft | 11 kts | 96° |
| 2026-05-06 05:47 | -27.41319 | 151.73543 | 1339 ft | 6 kts | 21° |
| 2026-05-06 05:48 | -27.41304 | 151.73554 | 1334 ft | 0 kts | 12° |
| 2026-05-06 05:52 | -27.41299 | 151.73552 | 1335 ft | 3 kts | 13° |
| 2026-05-06 05:52 | -27.41282 | 151.73505 | 1339 ft | 10 kts | 289° |
| 2026-05-06 05:53 | -27.41231 | 151.73459 | 1344 ft | 14 kts | 14° |
| 2026-05-06 05:53 | -27.41143 | 151.73478 | 1333 ft | 9 kts | 13° |
| 2026-05-06 05:53 | -27.41121 | 151.73484 | 1332 ft | 0 kts | 11° |
| 2026-05-06 05:58 | -27.41092 | 151.73491 | 1335 ft | 7 kts | 5° |
| 2026-05-06 05:58 | -27.41067 | 151.73480 | 1333 ft | 6 kts | 290° |
| 2026-05-06 05:58 | -27.41035 | 151.73296 | 1343 ft | 45 kts | 287° |
| 2026-05-06 05:58 | -27.40958 | 151.72794 | 1434 ft | 84 kts | 281° |
| 2026-05-06 05:59 | -27.40847 | 151.72068 | 1678 ft | 98 kts | 280° |
| 2026-05-06 05:59 | -27.40783 | 151.71351 | 1913 ft | 91 kts | 269° |
| 2026-05-06 05:59 | -27.41261 | 151.70877 | 1955 ft | 108 kts | 199° |
| 2026-05-06 05:59 | -27.41970 | 151.71290 | 1921 ft | 131 kts | 130° |
| 2026-05-06 06:00 | -27.42178 | 151.72296 | 1957 ft | 128 kts | 98° |
| 2026-05-06 06:00 | -27.42250 | 151.73166 | 2022 ft | 103 kts | 97° |
| 2026-05-06 06:00 | -27.42333 | 151.73952 | 2048 ft | 99 kts | 92° |
| 2026-05-06 06:00 | -27.42041 | 151.74584 | 1985 ft | 98 kts | 19° |
| 2026-05-06 06:01 | -27.41417 | 151.74545 | 1847 ft | 94 kts | 311° |
| 2026-05-06 06:01 | -27.41145 | 151.74032 | 1571 ft | 61 kts | 275° |
| 2026-05-06 06:01 | -27.41088 | 151.73634 | 1408 ft | 38 kts | 278° |
| 2026-05-06 06:01 | -27.41066 | 151.73496 | 1334 ft | 0 kts | 281° |
| 2026-05-06 06:02 | -27.41067 | 151.73493 | 1341 ft | 4 kts | 280° |
| 2026-05-06 06:02 | -27.41045 | 151.73343 | 1342 ft | 35 kts | 280° |
| 2026-05-06 06:02 | -27.40983 | 151.72906 | 1442 ft | 81 kts | 284° |
| 2026-05-06 06:02 | -27.40881 | 151.72196 | 1788 ft | 97 kts | 284° |
| 2026-05-06 06:03 | -27.40851 | 151.71439 | 1991 ft | 100 kts | 253° |
| 2026-05-06 06:03 | -27.41386 | 151.70974 | 1973 ft | 106 kts | 192° |
| 2026-05-06 06:03 | -27.41997 | 151.71398 | 1994 ft | 116 kts | 117° |
| 2026-05-06 06:03 | -27.42110 | 151.72322 | 1960 ft | 123 kts | 99° |
| 2026-05-06 06:04 | -27.42218 | 151.73334 | 1947 ft | 136 kts | 103° |
| 2026-05-06 06:04 | -27.42386 | 151.74383 | 1971 ft | 135 kts | 98° |
| 2026-05-06 06:04 | -27.41931 | 151.75122 | 1966 ft | 118 kts | 15° |
| 2026-05-06 06:04 | -27.41252 | 151.74734 | 1783 ft | 117 kts | 287° |
| 2026-05-06 06:05 | -27.41136 | 151.74028 | 1541 ft | 66 kts | 278° |
| 2026-05-06 06:05 | -27.41085 | 151.73616 | 1411 ft | 35 kts | 281° |
| 2026-05-06 06:05 | -27.41063 | 151.73479 | 1334 ft | 1 kts | 285° |
| 2026-05-06 06:05 | -27.41053 | 151.73424 | 1343 ft | 22 kts | 278° |
| 2026-05-06 06:06 | -27.41007 | 151.73099 | 1347 ft | 62 kts | 286° |
| 2026-05-06 06:06 | -27.40913 | 151.72488 | 1658 ft | 96 kts | 289° |
| 2026-05-06 06:06 | -27.40752 | 151.71640 | 1948 ft | 119 kts | 286° |
| 2026-05-06 06:06 | -27.40569 | 151.70689 | 2192 ft | 130 kts | 285° |
| 2026-05-06 06:07 | -27.40416 | 151.69752 | 2171 ft | 117 kts | 285° |
| 2026-05-06 06:07 | -27.39918 | 151.69084 | 2166 ft | 117 kts | 335° |
| 2026-05-06 06:07 | -27.39100 | 151.69103 | 2183 ft | 119 kts | 11° |
| 2026-05-06 06:07 | -27.38299 | 151.69295 | 2170 ft | 116 kts | 12° |
| 2026-05-06 06:08 | -27.37516 | 151.69497 | 2163 ft | 115 kts | 13° |
| 2026-05-06 06:08 | -27.36745 | 151.69715 | 2161 ft | 114 kts | 14° |
| 2026-05-06 06:08 | -27.35990 | 151.69953 | 2165 ft | 111 kts | 29° |
| 2026-05-06 06:08 | -27.35587 | 151.70607 | 2158 ft | 106 kts | 90° |
| 2026-05-06 06:09 | -27.35996 | 151.71262 | 2158 ft | 114 kts | 156° |
| 2026-05-06 06:09 | -27.36772 | 151.71455 | 2149 ft | 114 kts | 157° |
| 2026-05-06 06:09 | -27.37374 | 151.72012 | 2160 ft | 111 kts | 130° |
| 2026-05-06 06:09 | -27.37842 | 151.72701 | 2149 ft | 115 kts | 128° |
| 2026-05-06 06:10 | -27.38230 | 151.73518 | 2157 ft | 123 kts | 111° |
| 2026-05-06 06:10 | -27.38472 | 151.74454 | 2167 ft | 126 kts | 106° |
| 2026-05-06 06:10 | -27.38649 | 151.75418 | 2166 ft | 124 kts | 99° |
| 2026-05-06 06:10 | -27.38929 | 151.76328 | 2149 ft | 130 kts | 129° |
| 2026-05-06 06:11 | -27.39806 | 151.76612 | 2160 ft | 145 kts | 187° |
| 2026-05-06 06:11 | -27.40557 | 151.75867 | 2142 ft | 155 kts | 250° |
| 2026-05-06 06:11 | -27.40854 | 151.74780 | 1615 ft | 137 kts | 279° |
| 2026-05-06 06:11 | -27.40675 | 151.73817 | 1682 ft | 122 kts | 286° |
| 2026-05-06 06:12 | -27.40467 | 151.72918 | 1722 ft | 111 kts | 291° |
| 2026-05-06 06:12 | -27.40278 | 151.72089 | 1748 ft | 111 kts | 288° |
| 2026-05-06 06:12 | -27.40664 | 151.71410 | 1788 ft | 124 kts | 191° |
| 2026-05-06 06:12 | -27.41164 | 151.72048 | 1838 ft | 127 kts | 99° |
| 2026-05-06 06:13 | -27.41017 | 151.73002 | 1950 ft | 133 kts | 52° |
| 2026-05-06 06:13 | -27.40111 | 151.73285 | 2005 ft | 132 kts | 13° |
| 2026-05-06 06:13 | -27.39203 | 151.73428 | 2002 ft | 131 kts | 13° |
| 2026-05-06 06:13 | -27.38338 | 151.73650 | 2003 ft | 122 kts | 32° |
| 2026-05-06 06:14 | -27.37877 | 151.74334 | 2072 ft | 105 kts | 84° |
| 2026-05-06 06:14 | -27.38177 | 151.75019 | 2143 ft | 101 kts | 155° |
| 2026-05-06 06:14 | -27.38853 | 151.75103 | 2205 ft | 106 kts | 188° |
| 2026-05-06 06:14 | -27.39589 | 151.74866 | 1992 ft | 115 kts | 215° |
| 2026-05-06 06:15 | -27.40084 | 151.74186 | 1999 ft | 112 kts | 261° |
| 2026-05-06 06:15 | -27.40041 | 151.73317 | 2072 ft | 119 kts | 285° |
| 2026-05-06 06:15 | -27.39892 | 151.72380 | 2096 ft | 124 kts | 285° |
| 2026-05-06 06:15 | -27.39733 | 151.71434 | 2112 ft | 124 kts | 286° |
| 2026-05-06 06:16 | -27.39702 | 151.70440 | 2088 ft | 136 kts | 258° |
| 2026-05-06 06:16 | -27.40377 | 151.69754 | 2053 ft | 132 kts | 169° |
| 2026-05-06 06:16 | -27.40859 | 151.70502 | 2005 ft | 148 kts | 80° |
| 2026-05-06 06:16 | -27.40805 | 151.71520 | 1613 ft | 105 kts | 96° |
| 2026-05-06 06:17 | -27.40867 | 151.72138 | 1472 ft | 54 kts | 98° |
| 2026-05-06 06:17 | -27.40907 | 151.72427 | 1355 ft | 21 kts | 95° |
| 2026-05-06 06:17 | -27.40915 | 151.72489 | 1341 ft | 0 kts | 106° |
| 2026-05-06 06:19 | -27.40915 | 151.72490 | 1341 ft | 1 kts | 98° |
| 2026-05-06 06:19 | -27.40919 | 151.72525 | 1340 ft | 13 kts | 105° |
| 2026-05-06 06:20 | -27.40954 | 151.72732 | 1348 ft | 43 kts | 101° |
| 2026-05-06 06:20 | -27.41030 | 151.73237 | 1411 ft | 82 kts | 108° |
| 2026-05-06 06:20 | -27.41155 | 151.73926 | 1698 ft | 96 kts | 106° |
| 2026-05-06 06:20 | -27.41279 | 151.74698 | 1951 ft | 103 kts | 88° |
| 2026-05-06 06:21 | -27.41001 | 151.75441 | 2102 ft | 107 kts | 39° |
| 2026-05-06 06:21 | -27.40300 | 151.75711 | 2232 ft | 116 kts | 346° |
| 2026-05-06 06:21 | -27.39676 | 151.75084 | 2274 ft | 131 kts | 286° |
| 2026-05-06 06:21 | -27.39364 | 151.74086 | 2129 ft | 141 kts | 277° |
| 2026-05-06 06:22 | -27.39136 | 151.73049 | 1983 ft | 128 kts | 283° |
| 2026-05-06 06:22 | -27.38995 | 151.72065 | 2059 ft | 130 kts | 279° |
| 2026-05-06 06:22 | -27.39108 | 151.71105 | 2077 ft | 118 kts | 232° |
| 2026-05-06 06:22 | -27.39759 | 151.70808 | 2035 ft | 99 kts | 154° |
| 2026-05-06 06:23 | -27.40421 | 151.71081 | 1871 ft | 95 kts | 130° |
| 2026-05-06 06:23 | -27.40738 | 151.71689 | 1692 ft | 82 kts | 109° |
| 2026-05-06 06:23 | -27.40866 | 151.72210 | 1477 ft | 57 kts | 102° |
| 2026-05-06 06:23 | -27.40915 | 151.72498 | 1351 ft | 17 kts | 99° |
| 2026-05-06 06:24 | -27.40919 | 151.72531 | 1336 ft | 0 kts | 100° |
| 2026-05-06 06:26 | -27.40929 | 151.72594 | 1346 ft | 24 kts | 99° |
| 2026-05-06 06:27 | -27.40987 | 151.72987 | 1359 ft | 83 kts | 102° |
| 2026-05-06 06:27 | -27.41106 | 151.73756 | 1724 ft | 103 kts | 103° |
| 2026-05-06 06:27 | -27.41134 | 151.74517 | 2056 ft | 104 kts | 70° |
| 2026-05-06 06:27 | -27.40407 | 151.74761 | 2052 ft | 124 kts | 350° |
| 2026-05-06 06:28 | -27.39991 | 151.74026 | 2045 ft | 110 kts | 283° |
| 2026-05-06 06:28 | -27.39869 | 151.73256 | 2009 ft | 94 kts | 281° |
| 2026-05-06 06:28 | -27.39764 | 151.72479 | 2086 ft | 107 kts | 281° |
| 2026-05-06 06:28 | -27.39990 | 151.71691 | 2047 ft | 115 kts | 223° |
| 2026-05-06 06:29 | -27.40760 | 151.71581 | 1887 ft | 119 kts | 150° |
| 2026-05-06 06:29 | -27.40901 | 151.72345 | 1487 ft | 88 kts | 104° |
| 2026-05-06 06:29 | -27.40947 | 151.72692 | 1340 ft | 0 kts | 105° |
| 2026-05-06 06:32 | -27.40957 | 151.72751 | 1345 ft | 19 kts | 104° |
| 2026-05-06 06:33 | -27.40991 | 151.72996 | 1349 ft | 45 kts | 104° |
| 2026-05-06 06:33 | -27.41059 | 151.73476 | 1478 ft | 76 kts | 106° |
| 2026-05-06 06:33 | -27.41131 | 151.74083 | 1742 ft | 80 kts | 103° |
| 2026-05-06 06:33 | -27.41133 | 151.74702 | 1994 ft | 86 kts | 76° |
| 2026-05-06 06:34 | -27.40631 | 151.75088 | 2008 ft | 95 kts | 13° |
| 2026-05-06 06:34 | -27.40065 | 151.74767 | 2050 ft | 95 kts | 306° |
| 2026-05-06 06:34 | -27.39873 | 151.74051 | 2148 ft | 101 kts | 283° |
| 2026-05-06 06:34 | -27.39771 | 151.73156 | 1983 ft | 122 kts | 288° |
| 2026-05-06 06:35 | -27.39554 | 151.72275 | 2066 ft | 120 kts | 283° |
| 2026-05-06 06:35 | -27.39467 | 151.71314 | 2049 ft | 125 kts | 262° |
| 2026-05-06 06:35 | -27.40002 | 151.70664 | 1950 ft | 103 kts | 180° |
| 2026-05-06 06:35 | -27.40523 | 151.70896 | 1847 ft | 82 kts | 120° |
| 2026-05-06 06:36 | -27.40744 | 151.71507 | 1724 ft | 86 kts | 110° |
| 2026-05-06 06:36 | -27.40858 | 151.72028 | 1526 ft | 51 kts | 99° |
| 2026-05-06 06:36 | -27.40902 | 151.72354 | 1407 ft | 33 kts | 98° |
| 2026-05-06 06:36 | -27.40920 | 151.72515 | 1339 ft | 5 kts | 103° |
| 2026-05-06 06:37 | -27.40922 | 151.72524 | 1336 ft | 0 kts | 103° |
| 2026-05-06 06:37 | -27.40927 | 151.72559 | 1346 ft | 14 kts | 97° |
| 2026-05-06 06:37 | -27.40954 | 151.72733 | 1361 ft | 32 kts | 103° |
| 2026-05-06 06:37 | -27.41017 | 151.73162 | 1401 ft | 82 kts | 106° |
| 2026-05-06 06:38 | -27.41097 | 151.73843 | 1749 ft | 89 kts | 108° |
| 2026-05-06 06:38 | -27.41205 | 151.74556 | 1994 ft | 91 kts | 94° |
| 2026-05-06 06:38 | -27.40789 | 151.74951 | 2043 ft | 91 kts | 1° |
| 2026-05-06 06:38 | -27.40479 | 151.74326 | 1984 ft | 112 kts | 267° |
| 2026-05-06 06:39 | -27.40521 | 151.73438 | 2020 ft | 118 kts | 269° |
| 2026-05-06 06:39 | -27.40573 | 151.72530 | 1877 ft | 105 kts | 231° |
| 2026-05-06 06:39 | -27.40866 | 151.72319 | 1652 ft | 49 kts | 118° |
| 2026-05-06 06:39 | -27.40947 | 151.72714 | 1375 ft | 38 kts | 105° |
| 2026-05-06 06:40 | -27.41046 | 151.72837 | 1338 ft | 20 kts | 179° |
| 2026-05-06 06:40 | -27.41143 | 151.72928 | 1341 ft | 28 kts | 106° |
| 2026-05-06 06:40 | -27.41183 | 151.73189 | 1341 ft | 30 kts | 106° |
| 2026-05-06 06:40 | -27.41215 | 151.73387 | 1337 ft | 19 kts | 106° |
| 2026-05-06 06:41 | -27.41305 | 151.73441 | 1336 ft | 14 kts | 188° |
| 2026-05-06 06:41 | -27.41351 | 151.73471 | 1337 ft | 8 kts | 13° |
| 2026-05-06 06:41 | -27.41339 | 151.73474 | 1333 ft | 0 kts | 10° |
| 2026-05-06 06:54 | -27.41333 | 151.73476 | 1333 ft | 0 kts | 10° |